sensor_id;sensor_type;location;lat;lon;timestamp;temperature;humidity
25906;DHT22;13713;52.552;13.204;2023-02-11T00:02:03;14.40;62.50
25906;DHT22;13713;52.552;13.204;2023-02-11T00:04:30;14.30;62.50
25906;DHT22;13713;52.552;13.204;2023-02-11T00:06:56;14.40;62.40
25906;DHT22;13713;52.552;13.204;2023-02-11T00:09:22;14.30;62.40
25906;DHT22;13713;52.552;13.204;2023-02-11T00:11:47;14.40;62.40
25906;DHT22;13713;52.552;13.204;2023-02-11T00:14:13;14.30;62.40
25906;DHT22;13713;52.552;13.204;2023-02-11T00:16:39;14.30;63.20
25906;DHT22;13713;52.552;13.204;2023-02-11T00:19:05;14.30;62.40
25906;DHT22;13713;52.552;13.204;2023-02-11T00:21:31;14.30;62.40
25906;DHT22;13713;52.552;13.204;2023-02-11T00:23:58;14.30;62.30
25906;DHT22;13713;52.552;13.204;2023-02-11T00:26:34;14.30;62.40
25906;DHT22;13713;52.552;13.204;2023-02-11T00:29:00;14.30;62.40
25906;DHT22;13713;52.552;13.204;2023-02-11T00:31:27;14.30;62.40
25906;DHT22;13713;52.552;13.204;2023-02-11T00:33:52;14.30;62.50
25906;DHT22;13713;52.552;13.204;2023-02-11T00:36:24;14.30;62.50
25906;DHT22;13713;52.552;13.204;2023-02-11T00:38:51;14.30;62.40
25906;DHT22;13713;52.552;13.204;2023-02-11T00:41:17;14.30;62.50
25906;DHT22;13713;52.552;13.204;2023-02-11T00:43:44;14.20;62.40
25906;DHT22;13713;52.552;13.204;2023-02-11T00:46:10;14.30;62.40
25906;DHT22;13713;52.552;13.204;2023-02-11T00:48:35;14.20;62.30
25906;DHT22;13713;52.552;13.204;2023-02-11T00:51:01;14.30;62.50
25906;DHT22;13713;52.552;13.204;2023-02-11T00:53:29;14.30;62.40
25906;DHT22;13713;52.552;13.204;2023-02-11T00:55:54;14.20;62.30
25906;DHT22;13713;52.552;13.204;2023-02-11T00:58:20;14.20;62.30
25906;DHT22;13713;52.552;13.204;2023-02-11T01:00:47;14.20;62.30
25906;DHT22;13713;52.552;13.204;2023-02-11T01:03:13;14.20;62.30
25906;DHT22;13713;52.552;13.204;2023-02-11T01:05:39;14.20;62.40
25906;DHT22;13713;52.552;13.204;2023-02-11T01:08:04;14.20;62.40
25906;DHT22;13713;52.552;13.204;2023-02-11T01:10:30;14.20;62.40
25906;DHT22;13713;52.552;13.204;2023-02-11T01:12:56;14.20;62.40
25906;DHT22;13713;52.552;13.204;2023-02-11T01:15:24;14.20;62.40
25906;DHT22;13713;52.552;13.204;2023-02-11T01:17:50;14.20;62.30
25906;DHT22;13713;52.552;13.204;2023-02-11T01:20:23;14.20;62.40
25906;DHT22;13713;52.552;13.204;2023-02-11T01:22:49;14.20;62.40
25906;DHT22;13713;52.552;13.204;2023-02-11T01:25:15;14.20;62.30
25906;DHT22;13713;52.552;13.204;2023-02-11T01:27:41;14.10;62.30
25906;DHT22;13713;52.552;13.204;2023-02-11T01:30:07;14.10;62.30
25906;DHT22;13713;52.552;13.204;2023-02-11T01:32:34;14.10;62.30
25906;DHT22;13713;52.552;13.204;2023-02-11T01:34:59;14.10;62.40
25906;DHT22;13713;52.552;13.204;2023-02-11T01:37:25;14.10;62.30
25906;DHT22;13713;52.552;13.204;2023-02-11T01:39:51;14.10;62.30
25906;DHT22;13713;52.552;13.204;2023-02-11T01:42:21;14.10;62.30
25906;DHT22;13713;52.552;13.204;2023-02-11T01:44:52;14.10;62.30
25906;DHT22;13713;52.552;13.204;2023-02-11T01:47:19;14.10;62.40
25906;DHT22;13713;52.552;13.204;2023-02-11T01:49:51;14.10;62.40
25906;DHT22;13713;52.552;13.204;2023-02-11T01:52:23;14.10;62.30
25906;DHT22;13713;52.552;13.204;2023-02-11T01:54:56;14.10;62.30
25906;DHT22;13713;52.552;13.204;2023-02-11T01:57:44;14.10;62.30
25906;DHT22;13713;52.552;13.204;2023-02-11T02:05:21;14.10;62.20
25906;DHT22;13713;52.552;13.204;2023-02-11T02:10:47;14.00;62.20
25906;DHT22;13713;52.552;13.204;2023-02-11T02:13:15;14.00;62.20
25906;DHT22;13713;52.552;13.204;2023-02-11T02:15:55;14.00;63.10
25906;DHT22;13713;52.552;13.204;2023-02-11T02:21:29;14.00;62.20
25906;DHT22;13713;52.552;13.204;2023-02-11T02:27:14;14.00;62.30
25906;DHT22;13713;52.552;13.204;2023-02-11T02:35:23;14.00;62.20
25906;DHT22;13713;52.552;13.204;2023-02-11T02:40:24;13.90;62.10
25906;DHT22;13713;52.552;13.204;2023-02-11T02:42:52;13.90;62.20
25906;DHT22;13713;52.552;13.204;2023-02-11T02:45:19;13.90;62.10
25906;DHT22;13713;52.552;13.204;2023-02-11T02:47:45;14.00;62.30
25906;DHT22;13713;52.552;13.204;2023-02-11T02:50:13;13.90;62.20
25906;DHT22;13713;52.552;13.204;2023-02-11T03:01:01;13.90;62.10
25906;DHT22;13713;52.552;13.204;2023-02-11T03:08:52;13.90;62.30
25906;DHT22;13713;52.552;13.204;2023-02-11T03:11:21;13.90;62.20
25906;DHT22;13713;52.552;13.204;2023-02-11T03:13:48;13.90;62.30
25906;DHT22;13713;52.552;13.204;2023-02-11T03:16:24;13.90;62.20
25906;DHT22;13713;52.552;13.204;2023-02-11T03:18:57;13.90;62.20
25906;DHT22;13713;52.552;13.204;2023-02-11T03:21:24;13.80;62.10
25906;DHT22;13713;52.552;13.204;2023-02-11T03:23:55;13.90;62.20
25906;DHT22;13713;52.552;13.204;2023-02-11T03:26:43;13.80;62.20
25906;DHT22;13713;52.552;13.204;2023-02-11T03:36:45;13.80;62.10
25906;DHT22;13713;52.552;13.204;2023-02-11T03:39:26;13.80;62.10
25906;DHT22;13713;52.552;13.204;2023-02-11T03:41:55;13.80;62.20
25906;DHT22;13713;52.552;13.204;2023-02-11T03:44:25;13.80;62.20
25906;DHT22;13713;52.552;13.204;2023-02-11T03:46:53;13.80;62.20
25906;DHT22;13713;52.552;13.204;2023-02-11T03:49:22;13.80;62.20
25906;DHT22;13713;52.552;13.204;2023-02-11T03:51:50;13.80;62.10
25906;DHT22;13713;52.552;13.204;2023-02-11T03:54:20;13.80;62.10
25906;DHT22;13713;52.552;13.204;2023-02-11T03:56:51;13.80;62.20
25906;DHT22;13713;52.552;13.204;2023-02-11T03:59:17;13.80;62.20
25906;DHT22;13713;52.552;13.204;2023-02-11T04:01:43;13.80;62.20
25906;DHT22;13713;52.552;13.204;2023-02-11T04:04:09;13.80;62.20
25906;DHT22;13713;52.552;13.204;2023-02-11T04:06:35;13.80;62.20
25906;DHT22;13713;52.552;13.204;2023-02-11T04:09:01;13.80;62.20
25906;DHT22;13713;52.552;13.204;2023-02-11T04:11:26;13.80;62.20
25906;DHT22;13713;52.552;13.204;2023-02-11T04:13:52;13.80;62.10
25906;DHT22;13713;52.552;13.204;2023-02-11T04:16:19;13.70;62.10
25906;DHT22;13713;52.552;13.204;2023-02-11T04:18:45;13.70;62.10
25906;DHT22;13713;52.552;13.204;2023-02-11T04:21:11;13.70;62.10
25906;DHT22;13713;52.552;13.204;2023-02-11T04:23:36;13.70;62.20
25906;DHT22;13713;52.552;13.204;2023-02-11T04:26:02;13.70;62.30
25906;DHT22;13713;52.552;13.204;2023-02-11T04:28:28;13.80;62.20
25906;DHT22;13713;52.552;13.204;2023-02-11T04:30:54;13.70;62.20
25906;DHT22;13713;52.552;13.204;2023-02-11T04:33:21;13.70;62.20
25906;DHT22;13713;52.552;13.204;2023-02-11T04:35:46;13.70;62.30
25906;DHT22;13713;52.552;13.204;2023-02-11T04:38:13;13.70;62.20
25906;DHT22;13713;52.552;13.204;2023-02-11T04:40:39;13.70;62.20
25906;DHT22;13713;52.552;13.204;2023-02-11T04:43:05;13.70;62.30
25906;DHT22;13713;52.552;13.204;2023-02-11T04:45:31;13.70;62.20
25906;DHT22;13713;52.552;13.204;2023-02-11T04:47:57;13.70;62.30
25906;DHT22;13713;52.552;13.204;2023-02-11T04:50:23;13.70;62.30
25906;DHT22;13713;52.552;13.204;2023-02-11T04:52:49;13.70;62.30
25906;DHT22;13713;52.552;13.204;2023-02-11T04:55:16;13.70;62.30
25906;DHT22;13713;52.552;13.204;2023-02-11T04:57:41;13.70;62.30
25906;DHT22;13713;52.552;13.204;2023-02-11T05:00:08;13.70;62.30
25906;DHT22;13713;52.552;13.204;2023-02-11T05:02:34;13.70;62.30
25906;DHT22;13713;52.552;13.204;2023-02-11T05:05:00;13.70;62.30
25906;DHT22;13713;52.552;13.204;2023-02-11T05:07:26;13.70;62.30
25906;DHT22;13713;52.552;13.204;2023-02-11T05:09:52;13.70;62.30
25906;DHT22;13713;52.552;13.204;2023-02-11T05:12:17;13.70;62.30
25906;DHT22;13713;52.552;13.204;2023-02-11T05:14:43;13.60;62.30
25906;DHT22;13713;52.552;13.204;2023-02-11T05:17:09;13.60;62.30
25906;DHT22;13713;52.552;13.204;2023-02-11T05:19:34;13.60;62.40
25906;DHT22;13713;52.552;13.204;2023-02-11T05:22:00;13.70;63.20
25906;DHT22;13713;52.552;13.204;2023-02-11T05:24:26;13.60;62.40
25906;DHT22;13713;52.552;13.204;2023-02-11T05:26:51;13.60;62.40
25906;DHT22;13713;52.552;13.204;2023-02-11T05:29:17;13.60;62.40
25906;DHT22;13713;52.552;13.204;2023-02-11T05:31:43;13.60;62.40
25906;DHT22;13713;52.552;13.204;2023-02-11T05:34:09;13.60;62.50
25906;DHT22;13713;52.552;13.204;2023-02-11T05:36:35;13.60;62.40
25906;DHT22;13713;52.552;13.204;2023-02-11T05:39:00;13.60;62.40
25906;DHT22;13713;52.552;13.204;2023-02-11T05:41:26;13.60;62.40
25906;DHT22;13713;52.552;13.204;2023-02-11T05:43:52;13.60;62.40
25906;DHT22;13713;52.552;13.204;2023-02-11T05:46:17;13.60;62.40
25906;DHT22;13713;52.552;13.204;2023-02-11T05:48:43;13.60;62.40
25906;DHT22;13713;52.552;13.204;2023-02-11T05:51:09;13.60;62.40
25906;DHT22;13713;52.552;13.204;2023-02-11T05:53:35;13.60;62.60
25906;DHT22;13713;52.552;13.204;2023-02-11T05:56:01;13.50;62.50
25906;DHT22;13713;52.552;13.204;2023-02-11T05:58:27;13.50;62.50
25906;DHT22;13713;52.552;13.204;2023-02-11T06:00:53;13.50;62.40
25906;DHT22;13713;52.552;13.204;2023-02-11T06:03:19;13.50;62.50
25906;DHT22;13713;52.552;13.204;2023-02-11T06:05:45;13.60;63.50
25906;DHT22;13713;52.552;13.204;2023-02-11T06:08:11;13.50;62.50
25906;DHT22;13713;52.552;13.204;2023-02-11T06:10:37;13.50;62.60
25906;DHT22;13713;52.552;13.204;2023-02-11T06:13:03;13.50;62.60
25906;DHT22;13713;52.552;13.204;2023-02-11T06:15:29;13.50;62.60
25906;DHT22;13713;52.552;13.204;2023-02-11T06:17:55;13.50;62.60
25906;DHT22;13713;52.552;13.204;2023-02-11T06:20:21;13.50;62.60
25906;DHT22;13713;52.552;13.204;2023-02-11T06:22:46;13.50;62.60
25906;DHT22;13713;52.552;13.204;2023-02-11T06:25:12;13.50;62.60
25906;DHT22;13713;52.552;13.204;2023-02-11T06:27:38;13.50;62.50
25906;DHT22;13713;52.552;13.204;2023-02-11T06:30:05;13.50;62.60
25906;DHT22;13713;52.552;13.204;2023-02-11T06:32:31;13.50;62.70
25906;DHT22;13713;52.552;13.204;2023-02-11T06:34:57;13.40;62.60
25906;DHT22;13713;52.552;13.204;2023-02-11T06:37:23;13.50;62.60
25906;DHT22;13713;52.552;13.204;2023-02-11T06:39:49;13.50;62.70
25906;DHT22;13713;52.552;13.204;2023-02-11T06:42:14;13.50;62.60
25906;DHT22;13713;52.552;13.204;2023-02-11T06:44:40;13.40;62.60
25906;DHT22;13713;52.552;13.204;2023-02-11T06:47:06;13.50;62.70
25906;DHT22;13713;52.552;13.204;2023-02-11T06:49:32;13.50;62.80
25906;DHT22;13713;52.552;13.204;2023-02-11T06:51:58;13.50;62.80
25906;DHT22;13713;52.552;13.204;2023-02-11T06:54:24;13.40;62.60
25906;DHT22;13713;52.552;13.204;2023-02-11T06:56:50;13.40;62.60
25906;DHT22;13713;52.552;13.204;2023-02-11T06:59:17;13.50;62.80
25906;DHT22;13713;52.552;13.204;2023-02-11T07:01:43;13.40;62.70
25906;DHT22;13713;52.552;13.204;2023-02-11T07:04:09;13.50;62.80
25906;DHT22;13713;52.552;13.204;2023-02-11T07:06:35;13.50;62.90
25906;DHT22;13713;52.552;13.204;2023-02-11T07:09:03;13.40;62.90
25906;DHT22;13713;52.552;13.204;2023-02-11T07:11:30;13.40;62.80
25906;DHT22;13713;52.552;13.204;2023-02-11T07:14:00;13.40;62.80
25906;DHT22;13713;52.552;13.204;2023-02-11T07:16:26;13.40;62.80
25906;DHT22;13713;52.552;13.204;2023-02-11T07:18:52;13.50;62.80
25906;DHT22;13713;52.552;13.204;2023-02-11T07:21:20;13.40;62.80
25906;DHT22;13713;52.552;13.204;2023-02-11T07:23:46;13.40;62.80
25906;DHT22;13713;52.552;13.204;2023-02-11T07:26:16;13.40;62.80
25906;DHT22;13713;52.552;13.204;2023-02-11T07:28:42;13.40;63.10
25906;DHT22;13713;52.552;13.204;2023-02-11T07:31:12;13.40;62.90
25906;DHT22;13713;52.552;13.204;2023-02-11T07:33:38;13.40;62.90
25906;DHT22;13713;52.552;13.204;2023-02-11T07:36:06;13.40;62.90
25906;DHT22;13713;52.552;13.204;2023-02-11T07:38:33;13.40;62.80
25906;DHT22;13713;52.552;13.204;2023-02-11T07:41:07;13.40;62.80
25906;DHT22;13713;52.552;13.204;2023-02-11T07:43:34;13.40;62.80
25906;DHT22;13713;52.552;13.204;2023-02-11T07:46:04;13.40;62.80
25906;DHT22;13713;52.552;13.204;2023-02-11T07:48:31;13.40;62.90
25906;DHT22;13713;52.552;13.204;2023-02-11T07:51:10;13.40;63.60
25906;DHT22;13713;52.552;13.204;2023-02-11T07:53:36;13.30;62.80
25906;DHT22;13713;52.552;13.204;2023-02-11T07:56:04;13.40;62.80
25906;DHT22;13713;52.552;13.204;2023-02-11T07:58:30;13.40;62.90
25906;DHT22;13713;52.552;13.204;2023-02-11T08:01:05;13.40;63.60
25906;DHT22;13713;52.552;13.204;2023-02-11T08:03:32;13.30;62.90
25906;DHT22;13713;52.552;13.204;2023-02-11T08:05:58;13.40;63.00
25906;DHT22;13713;52.552;13.204;2023-02-11T08:08:27;13.30;62.90
25906;DHT22;13713;52.552;13.204;2023-02-11T08:10:53;13.40;62.90
25906;DHT22;13713;52.552;13.204;2023-02-11T08:13:18;13.30;62.90
25906;DHT22;13713;52.552;13.204;2023-02-11T08:15:44;13.30;63.00
25906;DHT22;13713;52.552;13.204;2023-02-11T08:18:10;13.30;63.00
25906;DHT22;13713;52.552;13.204;2023-02-11T08:20:35;13.30;63.10
25906;DHT22;13713;52.552;13.204;2023-02-11T08:23:01;13.30;63.00
25906;DHT22;13713;52.552;13.204;2023-02-11T08:25:27;13.30;63.00
25906;DHT22;13713;52.552;13.204;2023-02-11T08:27:53;13.30;63.10
25906;DHT22;13713;52.552;13.204;2023-02-11T08:30:19;13.40;63.10
25906;DHT22;13713;52.552;13.204;2023-02-11T08:32:44;13.30;63.10
25906;DHT22;13713;52.552;13.204;2023-02-11T08:35:11;13.30;63.10
25906;DHT22;13713;52.552;13.204;2023-02-11T08:37:37;13.30;63.00
25906;DHT22;13713;52.552;13.204;2023-02-11T08:40:03;13.30;63.90
25906;DHT22;13713;52.552;13.204;2023-02-11T08:42:29;13.30;63.10
25906;DHT22;13713;52.552;13.204;2023-02-11T08:44:55;13.40;63.20
25906;DHT22;13713;52.552;13.204;2023-02-11T08:47:21;13.30;63.10
25906;DHT22;13713;52.552;13.204;2023-02-11T08:49:46;13.30;63.00
25906;DHT22;13713;52.552;13.204;2023-02-11T08:52:12;13.30;63.10
25906;DHT22;13713;52.552;13.204;2023-02-11T08:54:38;13.30;63.20
25906;DHT22;13713;52.552;13.204;2023-02-11T08:57:04;13.30;63.20
25906;DHT22;13713;52.552;13.204;2023-02-11T08:59:30;13.20;63.10
25906;DHT22;13713;52.552;13.204;2023-02-11T09:01:56;13.30;63.20
25906;DHT22;13713;52.552;13.204;2023-02-11T09:04:22;13.30;63.20
25906;DHT22;13713;52.552;13.204;2023-02-11T09:06:48;13.30;63.20
25906;DHT22;13713;52.552;13.204;2023-02-11T09:09:15;13.30;63.30
25906;DHT22;13713;52.552;13.204;2023-02-11T09:11:42;13.30;63.20
25906;DHT22;13713;52.552;13.204;2023-02-11T09:14:18;13.20;63.20
25906;DHT22;13713;52.552;13.204;2023-02-11T09:16:44;13.20;63.20
25906;DHT22;13713;52.552;13.204;2023-02-11T09:19:09;13.30;63.30
25906;DHT22;13713;52.552;13.204;2023-02-11T09:21:35;13.30;63.60
25906;DHT22;13713;52.552;13.204;2023-02-11T09:24:01;13.20;63.40
25906;DHT22;13713;52.552;13.204;2023-02-11T09:26:30;13.30;64.20
25906;DHT22;13713;52.552;13.204;2023-02-11T09:28:56;13.20;63.20
25906;DHT22;13713;52.552;13.204;2023-02-11T09:31:24;13.20;63.10
25906;DHT22;13713;52.552;13.204;2023-02-11T09:33:52;13.30;63.20
25906;DHT22;13713;52.552;13.204;2023-02-11T09:36:23;13.20;63.30
25906;DHT22;13713;52.552;13.204;2023-02-11T09:38:50;13.20;63.30
25906;DHT22;13713;52.552;13.204;2023-02-11T09:44:21;13.20;63.30
25906;DHT22;13713;52.552;13.204;2023-02-11T09:47:33;13.20;63.40
25906;DHT22;13713;52.552;13.204;2023-02-11T09:50:19;13.20;63.40
25906;DHT22;13713;52.552;13.204;2023-02-11T09:53:00;13.20;64.20
25906;DHT22;13713;52.552;13.204;2023-02-11T09:55:31;13.20;63.40
25906;DHT22;13713;52.552;13.204;2023-02-11T09:58:02;13.20;63.50
25906;DHT22;13713;52.552;13.204;2023-02-11T10:11:16;13.20;63.30
25906;DHT22;13713;52.552;13.204;2023-02-11T10:22:12;13.20;63.50
25906;DHT22;13713;52.552;13.204;2023-02-11T10:24:41;13.20;63.50
25906;DHT22;13713;52.552;13.204;2023-02-11T10:27:19;13.20;63.50
25906;DHT22;13713;52.552;13.204;2023-02-11T10:29:50;13.20;63.60
25906;DHT22;13713;52.552;13.204;2023-02-11T10:35:01;13.20;63.60
25906;DHT22;13713;52.552;13.204;2023-02-11T10:37:27;13.20;63.50
25906;DHT22;13713;52.552;13.204;2023-02-11T10:39:54;13.20;63.50
25906;DHT22;13713;52.552;13.204;2023-02-11T10:42:19;13.10;63.50
25906;DHT22;13713;52.552;13.204;2023-02-11T10:44:54;13.10;63.60
25906;DHT22;13713;52.552;13.204;2023-02-11T10:47:23;13.20;63.50
25906;DHT22;13713;52.552;13.204;2023-02-11T10:49:50;13.10;63.60
25906;DHT22;13713;52.552;13.204;2023-02-11T10:52:24;13.20;63.70
25906;DHT22;13713;52.552;13.204;2023-02-11T10:55:04;13.20;63.60
25906;DHT22;13713;52.552;13.204;2023-02-11T10:57:39;13.20;63.60
25906;DHT22;13713;52.552;13.204;2023-02-11T11:03:04;13.10;63.50
25906;DHT22;13713;52.552;13.204;2023-02-11T11:05:43;13.20;63.70
25906;DHT22;13713;52.552;13.204;2023-02-11T11:08:10;13.20;63.80
25906;DHT22;13713;52.552;13.204;2023-02-11T11:10:48;13.10;63.60
25906;DHT22;13713;52.552;13.204;2023-02-11T11:13:36;13.10;63.60
25906;DHT22;13713;52.552;13.204;2023-02-11T11:18:40;13.10;63.50
25906;DHT22;13713;52.552;13.204;2023-02-11T11:24:03;13.10;63.60
25906;DHT22;13713;52.552;13.204;2023-02-11T11:29:16;13.20;63.80
25906;DHT22;13713;52.552;13.204;2023-02-11T11:31:55;13.10;63.60
25906;DHT22;13713;52.552;13.204;2023-02-11T11:34:34;13.10;63.60
25906;DHT22;13713;52.552;13.204;2023-02-11T11:37:10;13.10;63.80
25906;DHT22;13713;52.552;13.204;2023-02-11T11:39:38;13.10;64.60
25906;DHT22;13713;52.552;13.204;2023-02-11T11:42:28;13.10;63.70
25906;DHT22;13713;52.552;13.204;2023-02-11T11:44:59;13.10;63.70
25906;DHT22;13713;52.552;13.204;2023-02-11T11:56:03;13.10;63.50
25906;DHT22;13713;52.552;13.204;2023-02-11T11:58:32;13.10;63.60
25906;DHT22;13713;52.552;13.204;2023-02-11T12:03:46;13.10;63.50
25906;DHT22;13713;52.552;13.204;2023-02-11T12:09:25;13.10;63.80
25906;DHT22;13713;52.552;13.204;2023-02-11T12:19:53;13.10;63.70
25906;DHT22;13713;52.552;13.204;2023-02-11T12:28:09;13.10;64.60
25906;DHT22;13713;52.552;13.204;2023-02-11T12:47:44;13.00;63.80
25906;DHT22;13713;52.552;13.204;2023-02-11T12:55:44;13.00;63.70
25906;DHT22;13713;52.552;13.204;2023-02-11T12:58:20;13.00;63.70
25906;DHT22;13713;52.552;13.204;2023-02-11T13:00:54;13.00;63.70
25906;DHT22;13713;52.552;13.204;2023-02-11T13:06:14;13.00;63.70
25906;DHT22;13713;52.552;13.204;2023-02-11T13:08:48;12.90;63.60
25906;DHT22;13713;52.552;13.204;2023-02-11T13:11:33;13.00;64.40
25906;DHT22;13713;52.552;13.204;2023-02-11T13:14:08;13.00;63.70
25906;DHT22;13713;52.552;13.204;2023-02-11T13:16:41;13.00;63.70
25906;DHT22;13713;52.552;13.204;2023-02-11T13:27:09;13.00;63.80
25906;DHT22;13713;52.552;13.204;2023-02-11T13:37:55;13.00;63.80
25906;DHT22;13713;52.552;13.204;2023-02-11T13:40:24;13.00;63.80
25906;DHT22;13713;52.552;13.204;2023-02-11T13:42:56;13.00;63.80
25906;DHT22;13713;52.552;13.204;2023-02-11T13:48:06;13.00;63.80
25906;DHT22;13713;52.552;13.204;2023-02-11T13:50:38;13.00;63.80
25906;DHT22;13713;52.552;13.204;2023-02-11T13:53:12;13.00;63.80
25906;DHT22;13713;52.552;13.204;2023-02-11T13:55:40;13.00;63.90
25906;DHT22;13713;52.552;13.204;2023-02-11T14:09:45;13.00;63.90
25906;DHT22;13713;52.552;13.204;2023-02-11T14:12:15;13.00;63.90
25906;DHT22;13713;52.552;13.204;2023-02-11T14:17:32;12.90;63.80
25906;DHT22;13713;52.552;13.204;2023-02-11T14:19:59;13.00;64.00
25906;DHT22;13713;52.552;13.204;2023-02-11T14:22:48;12.90;63.90
25906;DHT22;13713;52.552;13.204;2023-02-11T14:25:23;12.90;63.90
25906;DHT22;13713;52.552;13.204;2023-02-11T14:28:10;12.90;64.00
25906;DHT22;13713;52.552;13.204;2023-02-11T14:31:02;12.90;63.90
25906;DHT22;13713;52.552;13.204;2023-02-11T14:33:41;12.90;64.00
25906;DHT22;13713;52.552;13.204;2023-02-11T14:36:29;12.90;64.00
25906;DHT22;13713;52.552;13.204;2023-02-11T14:41:45;12.90;64.00
25906;DHT22;13713;52.552;13.204;2023-02-11T14:44:23;12.90;64.00
25906;DHT22;13713;52.552;13.204;2023-02-11T14:46:51;12.90;64.00
25906;DHT22;13713;52.552;13.204;2023-02-11T14:49:30;12.80;64.00
25906;DHT22;13713;52.552;13.204;2023-02-11T14:52:03;12.90;64.10
25906;DHT22;13713;52.552;13.204;2023-02-11T14:54:31;12.90;64.10
25906;DHT22;13713;52.552;13.204;2023-02-11T14:57:26;12.90;64.10
25906;DHT22;13713;52.552;13.204;2023-02-11T14:59:58;12.90;64.10
25906;DHT22;13713;52.552;13.204;2023-02-11T15:02:28;12.90;64.10
25906;DHT22;13713;52.552;13.204;2023-02-11T15:04:54;12.90;64.20
25906;DHT22;13713;52.552;13.204;2023-02-11T15:07:43;12.90;64.20
25906;DHT22;13713;52.552;13.204;2023-02-11T15:10:57;12.90;64.20
25906;DHT22;13713;52.552;13.204;2023-02-11T15:13:04;12.90;64.20
25906;DHT22;13713;52.552;13.204;2023-02-11T15:15:30;12.90;64.20
25906;DHT22;13713;52.552;13.204;2023-02-11T15:17:58;12.90;64.20
25906;DHT22;13713;52.552;13.204;2023-02-11T15:20:28;12.90;64.20
25906;DHT22;13713;52.552;13.204;2023-02-11T15:23:02;12.90;64.20
25906;DHT22;13713;52.552;13.204;2023-02-11T15:25:28;12.90;64.30
25906;DHT22;13713;52.552;13.204;2023-02-11T15:27:56;12.90;64.30
25906;DHT22;13713;52.552;13.204;2023-02-11T15:32:49;12.90;64.30
25906;DHT22;13713;52.552;13.204;2023-02-11T15:35:15;12.90;64.40
25906;DHT22;13713;52.552;13.204;2023-02-11T15:37:43;12.90;64.40
25906;DHT22;13713;52.552;13.204;2023-02-11T15:40:14;12.90;64.40
25906;DHT22;13713;52.552;13.204;2023-02-11T15:42:52;12.80;64.40
25906;DHT22;13713;52.552;13.204;2023-02-11T15:45:30;12.90;64.50
25906;DHT22;13713;52.552;13.204;2023-02-11T15:48:22;12.80;64.40
25906;DHT22;13713;52.552;13.204;2023-02-11T15:50:53;12.90;64.60
25906;DHT22;13713;52.552;13.204;2023-02-11T15:55:51;12.90;64.50
25906;DHT22;13713;52.552;13.204;2023-02-11T15:58:17;12.80;64.40
25906;DHT22;13713;52.552;13.204;2023-02-11T16:00:49;12.80;64.40
25906;DHT22;13713;52.552;13.204;2023-02-11T16:03:23;12.80;64.40
25906;DHT22;13713;52.552;13.204;2023-02-11T16:05:50;12.80;64.50
25906;DHT22;13713;52.552;13.204;2023-02-11T16:08:25;12.80;64.50
25906;DHT22;13713;52.552;13.204;2023-02-11T16:11:03;12.90;64.60
25906;DHT22;13713;52.552;13.204;2023-02-11T16:13:44;12.80;64.60
25906;DHT22;13713;52.552;13.204;2023-02-11T16:16:22;12.80;64.60
25906;DHT22;13713;52.552;13.204;2023-02-11T16:18:59;12.80;64.60
25906;DHT22;13713;52.552;13.204;2023-02-11T16:21:40;12.80;64.60
25906;DHT22;13713;52.552;13.204;2023-02-11T16:24:13;12.80;64.60
25906;DHT22;13713;52.552;13.204;2023-02-11T16:26:48;12.80;64.70
25906;DHT22;13713;52.552;13.204;2023-02-11T16:29:17;12.80;64.70
25906;DHT22;13713;52.552;13.204;2023-02-11T16:31:46;12.80;64.70
25906;DHT22;13713;52.552;13.204;2023-02-11T16:34:17;12.80;64.70
25906;DHT22;13713;52.552;13.204;2023-02-11T16:36:45;12.80;64.70
25906;DHT22;13713;52.552;13.204;2023-02-11T16:39:11;12.80;64.70
25906;DHT22;13713;52.552;13.204;2023-02-11T16:41:37;12.80;64.80
25906;DHT22;13713;52.552;13.204;2023-02-11T16:44:03;12.90;64.80
25906;DHT22;13713;52.552;13.204;2023-02-11T16:46:30;12.80;64.80
25906;DHT22;13713;52.552;13.204;2023-02-11T16:48:56;12.80;64.80
25906;DHT22;13713;52.552;13.204;2023-02-11T16:51:23;12.80;64.90
25906;DHT22;13713;52.552;13.204;2023-02-11T16:53:48;12.80;64.90
25906;DHT22;13713;52.552;13.204;2023-02-11T16:56:16;12.80;65.00
25906;DHT22;13713;52.552;13.204;2023-02-11T16:58:43;12.80;64.90
25906;DHT22;13713;52.552;13.204;2023-02-11T17:01:09;12.80;64.90
25906;DHT22;13713;52.552;13.204;2023-02-11T17:03:36;12.80;64.90
25906;DHT22;13713;52.552;13.204;2023-02-11T17:06:11;12.80;64.90
25906;DHT22;13713;52.552;13.204;2023-02-11T17:08:38;12.80;65.00
25906;DHT22;13713;52.552;13.204;2023-02-11T17:11:04;12.80;65.00
25906;DHT22;13713;52.552;13.204;2023-02-11T17:13:31;12.80;65.00
25906;DHT22;13713;52.552;13.204;2023-02-11T17:15:57;12.80;65.00
25906;DHT22;13713;52.552;13.204;2023-02-11T17:18:23;12.80;65.80
25906;DHT22;13713;52.552;13.204;2023-02-11T17:20:48;12.70;65.00
25906;DHT22;13713;52.552;13.204;2023-02-11T17:23:14;12.80;65.00
25906;DHT22;13713;52.552;13.204;2023-02-11T17:25:40;12.80;65.00
25906;DHT22;13713;52.552;13.204;2023-02-11T17:28:07;12.80;65.90
25906;DHT22;13713;52.552;13.204;2023-02-11T17:30:34;12.80;65.10
25906;DHT22;13713;52.552;13.204;2023-02-11T17:32:59;12.70;65.10
25906;DHT22;13713;52.552;13.204;2023-02-11T17:35:25;12.80;66.00
25906;DHT22;13713;52.552;13.204;2023-02-11T17:37:51;12.80;65.20
25906;DHT22;13713;52.552;13.204;2023-02-11T17:40:17;12.80;65.30
25906;DHT22;13713;52.552;13.204;2023-02-11T17:42:42;12.70;65.20
25906;DHT22;13713;52.552;13.204;2023-02-11T17:45:09;12.80;65.30
25906;DHT22;13713;52.552;13.204;2023-02-11T17:47:35;12.80;65.30
25906;DHT22;13713;52.552;13.204;2023-02-11T17:50:01;12.70;65.20
25906;DHT22;13713;52.552;13.204;2023-02-11T17:52:27;12.70;65.20
25906;DHT22;13713;52.552;13.204;2023-02-11T17:54:54;12.80;65.30
25906;DHT22;13713;52.552;13.204;2023-02-11T17:57:20;12.80;65.30
25906;DHT22;13713;52.552;13.204;2023-02-11T17:59:46;12.70;65.20
25906;DHT22;13713;52.552;13.204;2023-02-11T18:02:11;12.70;65.20
25906;DHT22;13713;52.552;13.204;2023-02-11T18:04:38;12.70;65.30
25906;DHT22;13713;52.552;13.204;2023-02-11T18:07:04;12.70;65.30
25906;DHT22;13713;52.552;13.204;2023-02-11T18:09:30;12.70;65.30
25906;DHT22;13713;52.552;13.204;2023-02-11T18:12:00;12.70;65.40
25906;DHT22;13713;52.552;13.204;2023-02-11T18:14:25;12.70;65.40
25906;DHT22;13713;52.552;13.204;2023-02-11T18:16:51;12.70;65.40
25906;DHT22;13713;52.552;13.204;2023-02-11T18:19:18;12.70;65.40
25906;DHT22;13713;52.552;13.204;2023-02-11T18:21:43;12.70;65.40